sensor_id;sensor_type;location;lat;lon;timestamp;pressure;altitude;pressure_sealevel;temperature;humidity
70684;BME280;58263;48.146;11.440;2024-01-27T00:01:55;97237.19;;;1.50;91.48
70684;BME280;58263;48.146;11.440;2024-01-27T00:04:21;97228.88;;;1.64;90.66
70684;BME280;58263;48.146;11.440;2024-01-27T00:06:46;97231.94;;;1.69;90.06
70684;BME280;58263;48.146;11.440;2024-01-27T00:09:12;97236.81;;;1.74;90.07
70684;BME280;58263;48.146;11.440;2024-01-27T00:11:37;97242.25;;;1.92;89.14
70684;BME280;58263;48.146;11.440;2024-01-27T00:14:02;97248.53;;;2.11;88.13
70684;BME280;58263;48.146;11.440;2024-01-27T00:16:28;97258.28;;;2.00;88.86
70684;BME280;58263;48.146;11.440;2024-01-27T00:18:53;97252.44;;;1.87;87.56
70684;BME280;58263;48.146;11.440;2024-01-27T00:21:18;97260.00;;;1.51;89.00
70684;BME280;58263;48.146;11.440;2024-01-27T00:23:44;97257.06;;;1.34;89.92
70684;BME280;58263;48.146;11.440;2024-01-27T00:26:09;97260.50;;;1.25;90.83
70684;BME280;58263;48.146;11.440;2024-01-27T00:28:34;97245.47;;;1.16;91.28
70684;BME280;58263;48.146;11.440;2024-01-27T00:30:59;97255.94;;;1.27;90.21
70684;BME280;58263;48.146;11.440;2024-01-27T00:33:25;97247.44;;;1.33;90.56
70684;BME280;58263;48.146;11.440;2024-01-27T00:35:51;97251.50;;;1.38;90.60
70684;BME280;58263;48.146;11.440;2024-01-27T00:38:16;97248.59;;;1.41;90.48
70684;BME280;58263;48.146;11.440;2024-01-27T00:40:41;97248.84;;;1.38;90.51
70684;BME280;58263;48.146;11.440;2024-01-27T00:43:07;97250.28;;;1.51;90.28
70684;BME280;58263;48.146;11.440;2024-01-27T00:45:32;97242.06;;;1.45;90.40
70684;BME280;58263;48.146;11.440;2024-01-27T00:47:57;97249.00;;;1.46;90.58
70684;BME280;58263;48.146;11.440;2024-01-27T00:50:23;97245.69;;;1.63;90.54
70684;BME280;58263;48.146;11.440;2024-01-27T00:52:49;97247.09;;;1.67;90.81
70684;BME280;58263;48.146;11.440;2024-01-27T00:55:14;97243.78;;;1.65;89.48
70684;BME280;58263;48.146;11.440;2024-01-27T00:57:40;97248.59;;;1.41;89.76
70684;BME280;58263;48.146;11.440;2024-01-27T01:00:08;97253.03;;;1.40;90.02
70684;BME280;58263;48.146;11.440;2024-01-27T01:02:34;97248.84;;;1.38;90.24
70684;BME280;58263;48.146;11.440;2024-01-27T01:05:00;97239.41;;;1.45;90.36
70684;BME280;58263;48.146;11.440;2024-01-27T01:07:26;97240.53;;;1.52;91.09
70684;BME280;58263;48.146;11.440;2024-01-27T01:09:51;97244.44;;;1.67;90.42
70684;BME280;58263;48.146;11.440;2024-01-27T01:12:16;97252.13;;;1.71;90.42
70684;BME280;58263;48.146;11.440;2024-01-27T01:14:43;97246.13;;;1.59;89.51
70684;BME280;58263;48.146;11.440;2024-01-27T01:17:08;97242.50;;;1.60;89.40
70684;BME280;58263;48.146;11.440;2024-01-27T01:19:34;97245.81;;;1.52;89.89
70684;BME280;58263;48.146;11.440;2024-01-27T01:21:59;97251.31;;;1.29;90.49
70684;BME280;58263;48.146;11.440;2024-01-27T01:24:24;97248.34;;;1.13;91.94
70684;BME280;58263;48.146;11.440;2024-01-27T01:26:49;97264.03;;;1.05;93.28
70684;BME280;58263;48.146;11.440;2024-01-27T01:29:15;97263.75;;;1.08;92.14
70684;BME280;58263;48.146;11.440;2024-01-27T01:31:43;97254.81;;;1.20;91.23
70684;BME280;58263;48.146;11.440;2024-01-27T01:34:08;97260.25;;;1.28;90.25
70684;BME280;58263;48.146;11.440;2024-01-27T01:36:34;97267.03;;;1.21;90.11
70684;BME280;58263;48.146;11.440;2024-01-27T01:38:59;97273.94;;;1.12;91.00
70684;BME280;58263;48.146;11.440;2024-01-27T01:41:24;97285.44;;;1.01;92.02
70684;BME280;58263;48.146;11.440;2024-01-27T01:43:50;97277.06;;;0.96;92.34
70684;BME280;58263;48.146;11.440;2024-01-27T01:46:15;97287.63;;;0.96;91.69
70684;BME280;58263;48.146;11.440;2024-01-27T01:48:40;97281.31;;;1.09;91.06
70684;BME280;58263;48.146;11.440;2024-01-27T01:51:06;97274.69;;;1.24;90.62
70684;BME280;58263;48.146;11.440;2024-01-27T01:53:31;97275.56;;;1.34;89.94
70684;BME280;58263;48.146;11.440;2024-01-27T01:55:57;97283.75;;;1.31;89.41
70684;BME280;58263;48.146;11.440;2024-01-27T01:58:22;97285.03;;;1.37;88.84
70684;BME280;58263;48.146;11.440;2024-01-27T02:00:47;97281.72;;;1.45;89.29
70684;BME280;58263;48.146;11.440;2024-01-27T02:03:13;97284.78;;;1.50;88.63
70684;BME280;58263;48.146;11.440;2024-01-27T02:05:39;97285.06;;;1.47;88.70
70684;BME280;58263;48.146;11.440;2024-01-27T02:08:04;97294.66;;;1.48;88.60
70684;BME280;58263;48.146;11.440;2024-01-27T02:10:30;97299.50;;;1.43;88.48
70684;BME280;58263;48.146;11.440;2024-01-27T02:13:01;97307.56;;;1.31;88.45
70684;BME280;58263;48.146;11.440;2024-01-27T02:15:26;97305.97;;;1.19;88.93
70684;BME280;58263;48.146;11.440;2024-01-27T02:17:52;97305.03;;;1.30;88.45
70684;BME280;58263;48.146;11.440;2024-01-27T02:20:17;97308.97;;;1.45;87.56
70684;BME280;58263;48.146;11.440;2024-01-27T02:22:42;97312.56;;;1.34;87.65
70684;BME280;58263;48.146;11.440;2024-01-27T02:25:08;97320.91;;;1.30;88.02
70684;BME280;58263;48.146;11.440;2024-01-27T02:27:33;97312.22;;;1.18;88.40
70684;BME280;58263;48.146;11.440;2024-01-27T02:29:58;97314.53;;;1.32;88.25
70684;BME280;58263;48.146;11.440;2024-01-27T02:32:23;97312.19;;;1.39;88.72
70684;BME280;58263;48.146;11.440;2024-01-27T02:34:49;97313.69;;;1.42;87.89
70684;BME280;58263;48.146;11.440;2024-01-27T02:37:14;97314.63;;;1.31;88.15
70684;BME280;58263;48.146;11.440;2024-01-27T02:39:39;97314.06;;;0.96;88.30
70684;BME280;58263;48.146;11.440;2024-01-27T02:42:05;97316.25;;;0.91;89.24
70684;BME280;58263;48.146;11.440;2024-01-27T02:44:30;97312.91;;;0.89;89.38
70684;BME280;58263;48.146;11.440;2024-01-27T02:46:56;97318.47;;;0.86;90.87
70684;BME280;58263;48.146;11.440;2024-01-27T02:49:21;97319.25;;;0.77;89.90
70684;BME280;58263;48.146;11.440;2024-01-27T02:51:46;97314.72;;;0.89;89.87
70684;BME280;58263;48.146;11.440;2024-01-27T02:54:13;97309.91;;;1.04;89.68
70684;BME280;58263;48.146;11.440;2024-01-27T02:56:38;97314.56;;;1.11;89.46
70684;BME280;58263;48.146;11.440;2024-01-27T02:59:03;97312.50;;;1.15;89.18
70684;BME280;58263;48.146;11.440;2024-01-27T03:01:29;97315.00;;;1.16;89.37
70684;BME280;58263;48.146;11.440;2024-01-27T03:03:54;97305.97;;;1.19;89.20
70684;BME280;58263;48.146;11.440;2024-01-27T03:06:19;97308.94;;;1.26;88.91
70684;BME280;58263;48.146;11.440;2024-01-27T03:08:45;97316.84;;;1.26;88.63
70684;BME280;58263;48.146;11.440;2024-01-27T03:11:10;97320.91;;;1.30;88.45
70684;BME280;58263;48.146;11.440;2024-01-27T03:13:36;97321.84;;;1.19;89.51
70684;BME280;58263;48.146;11.440;2024-01-27T03:16:01;97325.59;;;1.26;89.18
70684;BME280;58263;48.146;11.440;2024-01-27T03:18:26;97321.47;;;1.33;88.95
70684;BME280;58263;48.146;11.440;2024-01-27T03:20:51;97326.88;;;1.32;88.35
70684;BME280;58263;48.146;11.440;2024-01-27T03:23:17;97328.16;;;1.38;87.49
70684;BME280;58263;48.146;11.440;2024-01-27T03:25:42;97339.28;;;1.31;88.07
70684;BME280;58263;48.146;11.440;2024-01-27T03:28:07;97345.69;;;1.39;87.59
70684;BME280;58263;48.146;11.440;2024-01-27T03:30:33;97348.06;;;1.42;87.91
70684;BME280;58263;48.146;11.440;2024-01-27T03:32:58;97346.00;;;1.45;88.27
70684;BME280;58263;48.146;11.440;2024-01-27T03:35:23;97345.72;;;1.48;87.18
70684;BME280;58263;48.146;11.440;2024-01-27T03:37:48;97345.41;;;1.42;87.06
70684;BME280;58263;48.146;11.440;2024-01-27T03:40:14;97354.91;;;1.44;87.18
70684;BME280;58263;48.146;11.440;2024-01-27T03:42:39;97349.91;;;1.51;87.50
70684;BME280;58263;48.146;11.440;2024-01-27T03:45:05;97353.78;;;1.47;86.72
70684;BME280;58263;48.146;11.440;2024-01-27T03:47:30;97361.03;;;1.45;86.95
70684;BME280;58263;48.146;11.440;2024-01-27T03:49:55;97360.25;;;1.54;86.80
70684;BME280;58263;48.146;11.440;2024-01-27T03:52:21;97368.88;;;1.56;86.69
70684;BME280;58263;48.146;11.440;2024-01-27T03:54:46;97369.13;;;1.53;86.60
70684;BME280;58263;48.146;11.440;2024-01-27T03:57:11;97363.00;;;1.52;87.51
70684;BME280;58263;48.146;11.440;2024-01-27T03:59:36;97377.59;;;1.47;86.21
70684;BME280;58263;48.146;11.440;2024-01-27T04:02:04;97372.91;;;1.60;86.43
70684;BME280;58263;48.146;11.440;2024-01-27T04:04:30;97376.66;;;1.58;86.60
70684;BME280;58263;48.146;11.440;2024-01-27T04:06:55;97373.34;;;1.56;86.64
70684;BME280;58263;48.146;11.440;2024-01-27T04:09:21;97378.34;;;1.59;86.92
70684;BME280;58263;48.146;11.440;2024-01-27T04:11:46;97378.34;;;1.59;86.49
70684;BME280;58263;48.146;11.440;2024-01-27T04:14:11;97377.31;;;1.50;86.45
70684;BME280;58263;48.146;11.440;2024-01-27T04:16:36;97378.69;;;1.44;85.92
70684;BME280;58263;48.146;11.440;2024-01-27T04:19:02;97375.72;;;1.38;86.56
70684;BME280;58263;48.146;11.440;2024-01-27T04:21:27;97380.78;;;1.41;86.74
70684;BME280;58263;48.146;11.440;2024-01-27T04:23:52;97387.31;;;1.37;87.39
70684;BME280;58263;48.146;11.440;2024-01-27T04:26:17;97377.25;;;1.30;87.04
70684;BME280;58263;48.146;11.440;2024-01-27T04:28:42;97381.78;;;0.97;88.10
70684;BME280;58263;48.146;11.440;2024-01-27T04:31:08;97375.00;;;1.05;87.30
70684;BME280;58263;48.146;11.440;2024-01-27T04:33:33;97382.09;;;0.83;87.45
70684;BME280;58263;48.146;11.440;2024-01-27T04:35:59;97375.72;;;0.86;87.46
70684;BME280;58263;48.146;11.440;2024-01-27T04:38:24;97376.25;;;1.00;87.47
70684;BME280;58263;48.146;11.440;2024-01-27T04:40:50;97386.28;;;0.86;87.45
70684;BME280;58263;48.146;11.440;2024-01-27T04:43:16;97385.53;;;0.74;88.08
70684;BME280;58263;48.146;11.440;2024-01-27T04:45:42;97391.25;;;0.79;87.56
70684;BME280;58263;48.146;11.440;2024-01-27T04:48:08;97390.91;;;0.72;88.07
70684;BME280;58263;48.146;11.440;2024-01-27T04:50:33;97389.59;;;0.78;88.17
70684;BME280;58263;48.146;11.440;2024-01-27T04:52:58;97388.09;;;0.85;87.93
70684;BME280;58263;48.146;11.440;2024-01-27T04:55:24;97389.59;;;0.78;87.59
70684;BME280;58263;48.146;11.440;2024-01-27T04:57:49;97394.81;;;0.36;89.28
70684;BME280;58263;48.146;11.440;2024-01-27T05:00:14;97405.91;;;0.18;90.91
70684;BME280;58263;48.146;11.440;2024-01-27T05:02:41;97400.63;;;0.18;91.40
70684;BME280;58263;48.146;11.440;2024-01-27T05:05:07;97403.44;;;0.38;90.95
70684;BME280;58263;48.146;11.440;2024-01-27T05:07:32;97398.09;;;0.49;90.37
70684;BME280;58263;48.146;11.440;2024-01-27T05:09:57;97404.78;;;0.64;89.57
70684;BME280;58263;48.146;11.440;2024-01-27T05:12:23;97413.97;;;0.38;89.56
70684;BME280;58263;48.146;11.440;2024-01-27T05:14:48;97416.63;;;0.38;89.44
70684;BME280;58263;48.146;11.440;2024-01-27T05:17:13;97412.56;;;0.33;89.82
70684;BME280;58263;48.146;11.440;2024-01-27T05:19:39;97416.41;;;0.29;88.75
70684;BME280;58263;48.146;11.440;2024-01-27T05:22:04;97416.41;;;0.29;89.10
70684;BME280;58263;48.146;11.440;2024-01-27T05:24:29;97426.00;;;0.30;89.06
70684;BME280;58263;48.146;11.440;2024-01-27T05:26:54;97426.00;;;0.19;88.86
70684;BME280;58263;48.146;11.440;2024-01-27T05:29:20;97421.97;;;0.04;89.89
70684;BME280;58263;48.146;11.440;2024-01-27T05:31:45;97425.56;;;0.03;89.56
70684;BME280;58263;48.146;11.440;2024-01-27T05:34:11;97431.06;;;0.11;89.93
70684;BME280;58263;48.146;11.440;2024-01-27T05:36:36;97431.81;;;0.13;89.10
70684;BME280;58263;48.146;11.440;2024-01-27T05:39:02;97448.84;;;0.09;90.16
70684;BME280;58263;48.146;11.440;2024-01-27T05:41:30;97448.84;;;0.09;90.30
70684;BME280;58263;48.146;11.440;2024-01-27T05:43:55;97447.03;;;0.09;89.78
70684;BME280;58263;48.146;11.440;2024-01-27T05:46:25;97451.03;;;-0.08;91.37
70684;BME280;58263;48.146;11.440;2024-01-27T05:48:51;97448.63;;;-0.22;91.50
70684;BME280;58263;48.146;11.440;2024-01-27T05:51:22;97446.00;;;-0.33;92.12
70684;BME280;58263;48.146;11.440;2024-01-27T05:53:48;97447.69;;;-0.32;91.65
70684;BME280;58263;48.146;11.440;2024-01-27T05:56:13;97457.13;;;-0.19;91.25
70684;BME280;58263;48.146;11.440;2024-01-27T05:58:38;97455.81;;;-0.24;90.53
70684;BME280;58263;48.146;11.440;2024-01-27T06:01:03;97461.09;;;-0.13;90.35
70684;BME280;58263;48.146;11.440;2024-01-27T06:03:29;97469.13;;;-0.26;90.90
70684;BME280;58263;48.146;11.440;2024-01-27T06:05:54;97466.13;;;-0.21;92.16
70684;BME280;58263;48.146;11.440;2024-01-27T06:08:20;97476.28;;;-0.17;91.75
70684;BME280;58263;48.146;11.440;2024-01-27T06:10:46;97474.66;;;-0.18;91.47
70684;BME280;58263;48.146;11.440;2024-01-27T06:13:11;97477.88;;;-0.37;91.57
70684;BME280;58263;48.146;11.440;2024-01-27T06:15:36;97477.00;;;-0.37;91.62
70684;BME280;58263;48.146;11.440;2024-01-27T06:18:02;97474.03;;;-0.32;91.34
70684;BME280;58263;48.146;11.440;2024-01-27T06:20:27;97479.56;;;-0.24;90.57
70684;BME280;58263;48.146;11.440;2024-01-27T06:22:52;97477.75;;;-0.24;90.80
70684;BME280;58263;48.146;11.440;2024-01-27T06:25:18;97475.69;;;-0.31;90.83
70684;BME280;58263;48.146;11.440;2024-01-27T06:27:43;97483.84;;;-0.57;92.13
70684;BME280;58263;48.146;11.440;2024-01-27T06:30:09;97485.75;;;-0.59;92.96
70684;BME280;58263;48.146;11.440;2024-01-27T06:32:35;97491.63;;;-0.44;92.09
70684;BME280;58263;48.146;11.440;2024-01-27T06:35:00;97479.78;;;-0.39;91.78
70684;BME280;58263;48.146;11.440;2024-01-27T06:37:25;97480.50;;;-0.37;91.45
70684;BME280;58263;48.146;11.440;2024-01-27T06:39:51;97485.03;;;-0.39;90.96
70684;BME280;58263;48.146;11.440;2024-01-27T06:42:16;97477.13;;;-0.27;90.59
70684;BME280;58263;48.146;11.440;2024-01-27T06:44:41;97479.53;;;-0.36;90.36
70684;BME280;58263;48.146;11.440;2024-01-27T06:47:06;97487.34;;;-0.34;90.85
70684;BME280;58263;48.146;11.440;2024-01-27T06:49:32;97486.72;;;-0.38;90.41
70684;BME280;58263;48.146;11.440;2024-01-27T06:51:58;97490.69;;;-0.43;90.87
70684;BME280;58263;48.146;11.440;2024-01-27T06:54:23;97489.69;;;-0.54;91.12
70684;BME280;58263;48.146;11.440;2024-01-27T06:56:48;97496.44;;;-0.38;91.03
70684;BME280;58263;48.146;11.440;2024-01-27T06:59:14;97491.75;;;-0.35;90.96
70684;BME280;58263;48.146;11.440;2024-01-27T07:01:45;97495.13;;;-0.32;90.38
70684;BME280;58263;48.146;11.440;2024-01-27T07:04:10;97491.63;;;-0.33;90.55
70684;BME280;58263;48.146;11.440;2024-01-27T07:06:36;97492.88;;;-0.26;90.39
70684;BME280;58263;48.146;11.440;2024-01-27T07:09:01;97499.66;;;-0.23;90.34
70684;BME280;58263;48.146;11.440;2024-01-27T07:11:26;97495.00;;;-0.20;90.01
70684;BME280;58263;48.146;11.440;2024-01-27T07:13:52;97498.38;;;-0.18;90.26
70684;BME280;58263;48.146;11.440;2024-01-27T07:16:17;97502.31;;;-0.23;90.33
70684;BME280;58263;48.146;11.440;2024-01-27T07:18:42;97498.38;;;-0.18;90.00
70684;BME280;58263;48.146;11.440;2024-01-27T07:21:07;97501.59;;;-0.25;90.20
70684;BME280;58263;48.146;11.440;2024-01-27T07:23:33;97498.97;;;-0.37;90.31
70684;BME280;58263;48.146;11.440;2024-01-27T07:26:00;97497.28;;;-0.26;90.18
70684;BME280;58263;48.146;11.440;2024-01-27T07:28:28;97497.03;;;-0.23;89.98
70684;BME280;58263;48.146;11.440;2024-01-27T07:30:53;97492.94;;;-0.27;89.88
70684;BME280;58263;48.146;11.440;2024-01-27T07:33:19;97497.63;;;-0.08;90.77
70684;BME280;58263;48.146;11.440;2024-01-27T07:35:44;97500.75;;;-0.03;90.92
70684;BME280;58263;48.146;11.440;2024-01-27T07:38:09;97504.25;;;0.09;90.49
70684;BME280;58263;48.146;11.440;2024-01-27T07:40:34;97498.13;;;-0.03;90.76
70684;BME280;58263;48.146;11.440;2024-01-27T07:43:00;97495.63;;;-0.16;90.47
70684;BME280;58263;48.146;11.440;2024-01-27T07:45:25;97498.63;;;-0.09;92.07
70684;BME280;58263;48.146;11.440;2024-01-27T07:47:50;97493.69;;;-0.14;93.25
70684;BME280;58263;48.146;11.440;2024-01-27T07:50:15;97505.44;;;0.05;92.37
70684;BME280;58263;48.146;11.440;2024-01-27T07:52:41;97505.94;;;0.10;93.15
70684;BME280;58263;48.146;11.440;2024-01-27T07:55:06;97511.41;;;0.07;93.32
70684;BME280;58263;48.146;11.440;2024-01-27T07:57:32;97514.78;;;0.20;92.86
70684;BME280;58263;48.146;11.440;2024-01-27T07:59:57;97510.69;;;0.39;92.74
70684;BME280;58263;48.146;11.440;2024-01-27T08:02:22;97516.44;;;0.44;92.81
70684;BME280;58263;48.146;11.440;2024-01-27T08:04:47;97516.44;;;0.44;92.89
70684;BME280;58263;48.146;11.440;2024-01-27T08:07:13;97512.31;;;0.62;91.61
70684;BME280;58263;48.146;11.440;2024-01-27T08:09:40;97519.63;;;0.70;91.43
70684;BME280;58263;48.146;11.440;2024-01-27T08:12:05;97510.56;;;0.84;90.79
70684;BME280;58263;48.146;11.440;2024-01-27T08:14:32;97509.00;;;0.93;90.62
70684;BME280;58263;48.146;11.440;2024-01-27T08:16:58;97521.06;;;1.07;89.60
70684;BME280;58263;48.146;11.440;2024-01-27T08:19:24;97521.41;;;1.13;89.62
70684;BME280;58263;48.146;11.440;2024-01-27T08:21:49;97519.97;;;1.09;90.39
70684;BME280;58263;48.146;11.440;2024-01-27T08:24:15;97522.28;;;1.24;90.21
70684;BME280;58263;48.146;11.440;2024-01-27T08:26:40;97519.31;;;1.17;90.24
70684;BME280;58263;48.146;11.440;2024-01-27T08:29:08;97521.47;;;1.23;90.48
70684;BME280;58263;48.146;11.440;2024-01-27T08:31:33;97520.91;;;1.41;89.78
70684;BME280;58263;48.146;11.440;2024-01-27T08:33:58;97524.78;;;1.37;89.95
70684;BME280;58263;48.146;11.440;2024-01-27T08:36:23;97534.78;;;1.54;88.93
70684;BME280;58263;48.146;11.440;2024-01-27T08:38:49;97529.78;;;1.61;89.00
70684;BME280;58263;48.146;11.440;2024-01-27T08:41:14;97532.63;;;1.69;88.26
70684;BME280;58263;48.146;11.440;2024-01-27T08:43:39;97533.00;;;1.85;86.67
70684;BME280;58263;48.146;11.440;2024-01-27T08:46:04;97531.03;;;2.09;85.56
70684;BME280;58263;48.146;11.440;2024-01-27T08:48:30;97534.66;;;2.08;85.89
70684;BME280;58263;48.146;11.440;2024-01-27T08:50:55;97530.06;;;2.19;85.27
70684;BME280;58263;48.146;11.440;2024-01-27T08:53:20;97533.69;;;2.09;86.14
70684;BME280;58263;48.146;11.440;2024-01-27T08:55:45;97538.13;;;2.39;84.61
70684;BME280;58263;48.146;11.440;2024-01-27T08:58:11;97537.03;;;2.51;84.66
70684;BME280;58263;48.146;11.440;2024-01-27T09:00:36;97538.31;;;2.57;84.14
70684;BME280;58263;48.146;11.440;2024-01-27T09:03:01;97533.31;;;2.74;83.02
70684;BME280;58263;48.146;11.440;2024-01-27T09:05:28;97535.00;;;2.75;83.37
70684;BME280;58263;48.146;11.440;2024-01-27T09:07:53;97534.72;;;2.78;84.31
70684;BME280;58263;48.146;11.440;2024-01-27T09:10:19;97536.56;;;2.87;83.07
70684;BME280;58263;48.146;11.440;2024-01-27T09:12:44;97544.19;;;2.70;83.86
70684;BME280;58263;48.146;11.440;2024-01-27T09:15:09;97541.19;;;3.04;82.35
70684;BME280;58263;48.146;11.440;2024-01-27T09:17:35;97544.13;;;3.21;80.72
70684;BME280;58263;48.146;11.440;2024-01-27T09:20:00;97541.19;;;3.24;80.66
70684;BME280;58263;48.146;11.440;2024-01-27T09:22:26;97543.72;;;3.35;79.75
70684;BME280;58263;48.146;11.440;2024-01-27T09:24:51;97534.88;;;3.45;80.43
70684;BME280;58263;48.146;11.440;2024-01-27T09:27:17;97542.03;;;3.34;80.96
70684;BME280;58263;48.146;11.440;2024-01-27T09:29:42;97536.16;;;3.41;79.93
70684;BME280;58263;48.146;11.440;2024-01-27T09:32:07;97539.81;;;3.40;79.59
70684;BME280;58263;48.146;11.440;2024-01-27T09:34:33;97539.19;;;3.65;77.95
70684;BME280;58263;48.146;11.440;2024-01-27T09:36:58;97542.13;;;3.82;77.70
70684;BME280;58263;48.146;11.440;2024-01-27T09:39:23;97536.16;;;3.60;79.66
70684;BME280;58263;48.146;11.440;2024-01-27T09:41:49;97543.78;;;3.83;79.48
70684;BME280;58263;48.146;11.440;2024-01-27T09:44:18;97543.34;;;3.87;77.40
70684;BME280;58263;48.146;11.440;2024-01-27T09:46:45;97557.69;;;4.04;75.92
70684;BME280;58263;48.146;11.440;2024-01-27T09:49:13;97560.16;;;4.26;77.19
70684;BME280;58263;48.146;11.440;2024-01-27T09:51:41;97561.50;;;4.39;75.94
70684;BME280;58263;48.146;11.440;2024-01-27T09:54:06;97569.56;;;4.48;74.88
70684;BME280;58263;48.146;11.440;2024-01-27T09:56:32;97555.25;;;4.21;75.71
70684;BME280;58263;48.146;11.440;2024-01-27T09:58:58;97564.66;;;4.53;74.70
70684;BME280;58263;48.146;11.440;2024-01-27T10:01:24;97563.19;;;4.68;73.84
70684;BME280;58263;48.146;11.440;2024-01-27T10:03:53;97556.00;;;4.79;73.89
70684;BME280;58263;48.146;11.440;2024-01-27T10:06:19;97558.53;;;4.98;73.30
70684;BME280;58263;48.146;11.440;2024-01-27T10:08:54;97559.00;;;5.12;70.83
70684;BME280;58263;48.146;11.440;2024-01-27T10:11:20;97562.34;;;5.14;71.22
70684;BME280;58263;48.146;11.440;2024-01-27T10:13:56;97570.09;;;5.61;70.93
70684;BME280;58263;48.146;11.440;2024-01-27T10:16:22;97568.38;;;5.96;69.88
70684;BME280;58263;48.146;11.440;2024-01-27T10:18:59;97567.63;;;6.30;68.20
70684;BME280;58263;48.146;11.440;2024-01-27T10:21:24;97565.50;;;6.76;67.45
70684;BME280;58263;48.146;11.440;2024-01-27T10:23:51;97555.56;;;7.03;66.13
70684;BME280;58263;48.146;11.440;2024-01-27T10:26:17;97552.66;;;6.37;66.21
70684;BME280;58263;48.146;11.440;2024-01-27T10:28:42;97546.34;;;6.89;63.04
70684;BME280;58263;48.146;11.440;2024-01-27T10:31:11;97541.81;;;7.66;63.62
70684;BME280;58263;48.146;11.440;2024-01-27T10:33:37;97538.41;;;8.21;61.24
70684;BME280;58263;48.146;11.440;2024-01-27T10:36:02;97540.44;;;8.75;59.94
70684;BME280;58263;48.146;11.440;2024-01-27T10:38:37;97536.81;;;9.23;57.25
70684;BME280;58263;48.146;11.440;2024-01-27T10:41:07;97537.25;;;9.03;57.45
70684;BME280;58263;48.146;11.440;2024-01-27T10:43:35;97530.47;;;8.53;57.51
70684;BME280;58263;48.146;11.440;2024-01-27T10:46:03;97527.38;;;8.72;56.85
70684;BME280;58263;48.146;11.440;2024-01-27T10:48:30;97527.94;;;8.59;55.71
70684;BME280;58263;48.146;11.440;2024-01-27T10:50:57;97520.53;;;8.70;56.82
70684;BME280;58263;48.146;11.440;2024-01-27T10:53:24;97526.91;;;9.00;56.47
70684;BME280;58263;48.146;11.440;2024-01-27T10:55:52;97522.84;;;9.36;56.29
70684;BME280;58263;48.146;11.440;2024-01-27T10:58:19;97520.09;;;9.21;55.62
70684;BME280;58263;48.146;11.440;2024-01-27T11:00:48;97518.72;;;9.25;55.17
70684;BME280;58263;48.146;11.440;2024-01-27T11:03:13;97522.00;;;10.11;54.03
70684;BME280;58263;48.146;11.440;2024-01-27T11:05:39;97526.47;;;9.43;55.82
70684;BME280;58263;48.146;11.440;2024-01-27T11:08:05;97520.78;;;9.14;53.03
70684;BME280;58263;48.146;11.440;2024-01-27T11:10:31;97522.53;;;9.54;53.34
70684;BME280;58263;48.146;11.440;2024-01-27T11:13:02;97506.19;;;10.02;51.06
70684;BME280;58263;48.146;11.440;2024-01-27T11:15:28;97504.63;;;10.07;52.70
70684;BME280;58263;48.146;11.440;2024-01-27T11:17:57;97495.66;;;10.00;52.00
70684;BME280;58263;48.146;11.440;2024-01-27T11:20:23;97488.59;;;10.89;49.77
70684;BME280;58263;48.146;11.440;2024-01-27T11:22:49;97502.97;;;10.66;50.35
70684;BME280;58263;48.146;11.440;2024-01-27T11:25:17;97504.03;;;10.50;47.51
70684;BME280;58263;48.146;11.440;2024-01-27T11:27:44;97501.16;;;11.46;48.52
70684;BME280;58263;48.146;11.440;2024-01-27T11:30:30;97488.50;;;11.62;46.37
70684;BME280;58263;48.146;11.440;2024-01-27T11:33:01;97485.69;;;10.54;48.95
70684;BME280;58263;48.146;11.440;2024-01-27T11:35:28;97484.28;;;11.09;49.99
70684;BME280;58263;48.146;11.440;2024-01-27T11:37:54;97487.63;;;10.60;48.88
70684;BME280;58263;48.146;11.440;2024-01-27T11:40:19;97478.88;;;11.74;50.90
70684;BME280;58263;48.146;11.440;2024-01-27T11:42:57;97480.16;;;11.78;47.54
70684;BME280;58263;48.146;11.440;2024-01-27T11:45:22;97480.28;;;10.83;47.15
70684;BME280;58263;48.146;11.440;2024-01-27T11:47:49;97474.06;;;11.41;47.56
70684;BME280;58263;48.146;11.440;2024-01-27T11:50:17;97475.13;;;11.04;45.95
70684;BME280;58263;48.146;11.440;2024-01-27T11:52:42;97476.09;;;11.61;46.07
70684;BME280;58263;48.146;11.440;2024-01-27T11:55:08;97482.25;;;11.11;46.74
70684;BME280;58263;48.146;11.440;2024-01-27T11:57:33;97480.59;;;11.32;46.86
70684;BME280;58263;48.146;11.440;2024-01-27T11:59:58;97475.06;;;12.18;46.37
70684;BME280;58263;48.146;11.440;2024-01-27T12:02:23;97469.91;;;12.59;42.71
70684;BME280;58263;48.146;11.440;2024-01-27T12:04:49;97469.69;;;12.54;44.92
70684;BME280;58263;48.146;11.440;2024-01-27T12:07:15;97466.25;;;13.48;42.46
70684;BME280;58263;48.146;11.440;2024-01-27T12:09:40;97478.88;;;13.55;42.70
70684;BME280;58263;48.146;11.440;2024-01-27T12:12:05;97470.78;;;14.01;39.64
70684;BME280;58263;48.146;11.440;2024-01-27T12:14:41;97474.13;;;13.50;40.15
70684;BME280;58263;48.146;11.440;2024-01-27T12:17:09;97472.38;;;13.22;40.05
70684;BME280;58263;48.146;11.440;2024-01-27T12:19:35;97477.66;;;13.57;39.91
70684;BME280;58263;48.146;11.440;2024-01-27T12:22:01;97475.19;;;13.76;41.51
70684;BME280;58263;48.146;11.440;2024-01-27T12:24:26;97469.69;;;12.54;40.85
70684;BME280;58263;48.146;11.440;2024-01-27T12:26:51;97466.69;;;12.35;42.84
70684;BME280;58263;48.146;11.440;2024-01-27T12:29:16;97464.72;;;12.15;43.97
70684;BME280;58263;48.146;11.440;2024-01-27T12:31:44;97464.56;;;12.24;42.33
70684;BME280;58263;48.146;11.440;2024-01-27T12:34:10;97458.78;;;13.50;40.26
70684;BME280;58263;48.146;11.440;2024-01-27T12:36:40;97466.75;;;12.48;41.74
70684;BME280;58263;48.146;11.440;2024-01-27T12:39:06;97467.47;;;13.39;41.87
70684;BME280;58263;48.146;11.440;2024-01-27T12:41:31;97462.47;;;13.36;40.88
70684;BME280;58263;48.146;11.440;2024-01-27T12:43:58;97457.78;;;12.90;40.93
70684;BME280;58263;48.146;11.440;2024-01-27T12:46:24;97461.59;;;13.22;39.67
70684;BME280;58263;48.146;11.440;2024-01-27T12:48:49;97454.34;;;13.16;39.36
70684;BME280;58263;48.146;11.440;2024-01-27T12:51:15;97438.38;;;14.22;39.27